createdAt,value
2023-03-23T15:58:35.209Z,100741.20
2023-03-23T16:01:08.314Z,100743.33
2023-03-23T16:03:41.372Z,100740.88
2023-03-23T16:06:23.388Z,100733.72
2023-03-23T16:08:55.859Z,100737.34
2023-03-23T16:11:27.730Z,100738.36
2023-03-23T16:13:57.499Z,100741.80
2023-03-23T16:16:29.692Z,100739.33
2023-03-23T16:18:59.114Z,100745.38
2023-03-23T16:21:35.218Z,100753.19
2023-03-23T16:24:07.466Z,100750.98
2023-03-23T16:26:39.802Z,100751.96
2023-03-23T16:29:28.355Z,100754.72
2023-03-23T16:32:04.663Z,100754.84
2023-03-23T16:34:35.281Z,100755.89
2023-03-23T16:37:06.174Z,100758.02
2023-03-23T16:39:35.591Z,100758.67
2023-03-23T16:42:04.926Z,100760.50
2023-03-23T16:44:34.090Z,100760.06
2023-03-23T16:47:03.607Z,100764.16
2023-03-23T16:49:32.886Z,100767.31
2023-03-23T16:52:02.081Z,100764.51
2023-03-23T16:54:32.164Z,100762.04
2023-03-23T16:57:01.436Z,100767.20
2023-03-23T16:59:31.067Z,100767.90
2023-03-23T17:02:02.984Z,100766.80
2023-03-23T17:04:33.084Z,100769.52
2023-03-23T17:07:09.419Z,100769.83
2023-03-23T17:09:46.504Z,100768.72
2023-03-23T17:12:17.262Z,100766.34
2023-03-23T17:14:46.747Z,100765.92
2023-03-23T17:17:16.418Z,100773.02
2023-03-23T17:19:47.829Z,100771.17
2023-03-23T17:22:16.974Z,100776.02
2023-03-23T17:24:47.160Z,100776.27
2023-03-23T17:27:19.512Z,100781.80
2023-03-23T17:29:49.361Z,100791.06
2023-03-23T17:32:20.353Z,100792.94
2023-03-23T17:34:52.924Z,100801.95
2023-03-23T17:37:23.188Z,100805.02
2023-03-23T17:39:52.368Z,100811.96
2023-03-23T17:42:21.686Z,100817.50
2023-03-23T17:44:51.060Z,100821.63
2023-03-23T17:47:20.367Z,100822.92
2023-03-23T17:49:49.764Z,100826.30
2023-03-23T17:52:19.541Z,100827.94
2023-03-23T17:54:48.717Z,100832.92
2023-03-23T17:57:18.500Z,100835.45
2023-03-23T17:59:48.097Z,100837.63
2023-03-23T18:02:19.180Z,100841.55
2023-03-23T18:04:48.835Z,100843.73
2023-03-23T18:07:23.942Z,100845.75
2023-03-23T18:09:53.200Z,100848.29
2023-03-23T18:12:22.519Z,100848.16
2023-03-23T18:14:55.702Z,100848.91
2023-03-23T18:17:26.044Z,100848.60
2023-03-23T18:19:55.341Z,100848.98
2023-03-23T18:22:24.972Z,100849.35
2023-03-23T18:24:55.144Z,100853.77
2023-03-23T18:27:25.750Z,100859.77
2023-03-23T18:29:55.475Z,100862.61
2023-03-23T18:32:26.942Z,100863.35
2023-03-23T18:34:56.613Z,100863.94
2023-03-23T18:37:26.150Z,100866.61
2023-03-23T18:39:56.098Z,100868.96
2023-03-23T18:42:26.231Z,100869.18
2023-03-23T18:44:55.609Z,100872.73
2023-03-23T18:47:24.776Z,100870.85
2023-03-23T18:49:56.653Z,100871.40
2023-03-23T18:52:28.285Z,100876.52
2023-03-23T18:54:58.206Z,100873.40
2023-03-23T18:57:28.043Z,100875.56
2023-03-23T18:59:57.500Z,100874.36
2023-03-23T19:02:27.195Z,100875.27
2023-03-23T19:04:57.015Z,100870.92
2023-03-23T19:07:26.241Z,100867.61
2023-03-23T19:09:55.456Z,100865.19
2023-03-23T19:12:25.231Z,100860.30
2023-03-23T19:14:54.653Z,100865.77
2023-03-23T19:17:24.643Z,100869.18
2023-03-23T19:19:54.789Z,100876.27
2023-03-23T19:22:25.492Z,100873.53
2023-03-23T19:25:04.854Z,100872.67
2023-03-23T19:27:43.560Z,100872.88
2023-03-23T19:30:24.442Z,100876.05
2023-03-23T19:32:53.739Z,100872.05
2023-03-23T19:35:23.051Z,100871.36
2023-03-23T19:37:52.531Z,100872.96
2023-03-23T19:40:37.518Z,100874.92
2023-03-23T19:43:10.974Z,100876.16
2023-03-23T19:45:41.485Z,100875.48
2023-03-23T19:48:10.893Z,100878.13
2023-03-23T19:50:40.959Z,100874.66
2023-03-23T19:53:10.452Z,100873.64
2023-03-23T19:55:39.781Z,100873.50
2023-03-23T19:58:10.405Z,100869.87
2023-03-23T20:00:40.552Z,100869.05
2023-03-23T20:03:09.735Z,100871.73
2023-03-23T20:05:40.772Z,100875.24
2023-03-23T20:08:10.756Z,100870.54
2023-03-23T20:10:40.764Z,100872.98
2023-03-23T20:13:12.067Z,100880.89
2023-03-23T20:15:41.718Z,100879.52
2023-03-23T20:18:14.320Z,100877.40
2023-03-23T20:20:45.794Z,100884.23
2023-03-23T20:23:15.886Z,100881.25
2023-03-23T20:25:46.445Z,100882.67
2023-03-23T20:28:16.775Z,100881.48
2023-03-23T20:30:46.690Z,100884.48
2023-03-23T20:33:36.920Z,100889.77
2023-03-23T20:36:09.306Z,100888.94
2023-03-23T20:38:41.372Z,100889.16
2023-03-23T20:41:11.750Z,100888.48
2023-03-23T20:43:42.627Z,100887.64
2023-03-23T20:46:12.642Z,100886.98
2023-03-23T20:48:42.224Z,100886.30
2023-03-23T20:51:11.528Z,100883.16
2023-03-23T20:53:41.302Z,100883.00
2023-03-23T20:56:10.296Z,100882.11
2023-03-23T20:58:39.616Z,100879.11
2023-03-23T21:01:10.377Z,100871.73
2023-03-23T21:03:43.260Z,100877.52
2023-03-23T21:06:12.324Z,100873.30
2023-03-23T21:08:41.707Z,100873.65
2023-03-23T21:11:17.659Z,100870.68
2023-03-23T21:13:47.862Z,100870.69
2023-03-23T21:16:18.886Z,100869.29
2023-03-23T21:18:48.732Z,100865.11
2023-03-23T21:21:18.932Z,100866.00
2023-03-23T21:23:51.983Z,100867.05
2023-03-23T21:26:23.663Z,100861.79
2023-03-23T21:28:53.684Z,100862.30
2023-03-23T21:31:26.200Z,100861.27
2023-03-23T21:33:55.784Z,100862.48
2023-03-23T21:36:26.260Z,100859.01
2023-03-23T21:38:56.498Z,100858.13
2023-03-23T21:41:29.467Z,100863.95
2023-03-23T21:44:11.503Z,100862.04
2023-03-23T21:46:42.664Z,100858.55
2023-03-23T21:49:14.190Z,100861.55
2023-03-23T21:51:43.991Z,100862.27
2023-03-23T21:54:13.087Z,100859.98
2023-03-23T21:56:42.626Z,100863.16
2023-03-23T21:59:12.060Z,100861.27
2023-03-23T22:01:41.273Z,100852.00
2023-03-23T22:04:11.255Z,100853.78
2023-03-23T22:06:41.835Z,100853.25
2023-03-23T22:09:12.024Z,100850.63
2023-03-23T22:11:42.743Z,100854.13
2023-03-23T22:14:12.199Z,100851.33
2023-03-23T22:16:41.695Z,100852.41
2023-03-23T22:19:11.227Z,100851.91
2023-03-23T22:21:40.501Z,100849.48
2023-03-23T22:24:10.037Z,100848.45
2023-03-23T22:26:39.220Z,100846.19
2023-03-23T22:29:10.664Z,100848.48
2023-03-23T22:31:40.433Z,100847.09
2023-03-23T22:34:10.264Z,100848.84
2023-03-23T22:36:40.705Z,100845.51
2023-03-23T22:39:10.102Z,100849.37
2023-03-23T22:41:41.010Z,100848.69
2023-03-23T22:44:13.244Z,100847.84
2023-03-23T22:46:42.651Z,100844.36
2023-03-23T22:49:12.103Z,100846.13
2023-03-23T22:51:41.403Z,100849.46
2023-03-23T22:54:11.722Z,100847.02
2023-03-23T22:56:40.941Z,100844.92
2023-03-23T22:59:11.716Z,100841.24
2023-03-23T23:01:41.016Z,100843.88
2023-03-23T23:04:10.938Z,100845.79
2023-03-23T23:06:40.328Z,100847.20
2023-03-23T23:09:10.356Z,100842.48
2023-03-23T23:11:41.941Z,100846.67
2023-03-23T23:14:11.367Z,100839.14
2023-03-23T23:16:40.673Z,100838.25
2023-03-23T23:19:10.062Z,100839.13
2023-03-23T23:21:40.802Z,100837.55
2023-03-23T23:24:10.219Z,100842.45
2023-03-23T23:26:39.746Z,100839.65
2023-03-23T23:29:09.736Z,100836.32
2023-03-23T23:31:39.140Z,100831.60
2023-03-23T23:34:12.045Z,100829.52
2023-03-23T23:36:41.633Z,100825.14
2023-03-23T23:39:11.659Z,100821.27
2023-03-23T23:41:41.419Z,100826.34
2023-03-23T23:44:10.921Z,100828.10
2023-03-23T23:46:40.682Z,100830.75
2023-03-23T23:49:10.299Z,100833.75
2023-03-23T23:51:40.762Z,100835.17
2023-03-23T23:54:10.275Z,100827.66
2023-03-23T23:56:41.169Z,100827.86
2023-03-23T23:59:10.532Z,100823.48
